Main page
METAR-TAF:

METAR-TAF

Airports :

Dubai International Airport

Dubai, United Arab Emirates

latitude: 25-15-10N, longitude: 055-21-52E, elevation: 8 m

Current weather observation

The report was made 59 minutes ago, at 17:00 UTC
Wind 7 kt from the West
Temperature 19°C
Humidity 49%
Pressure 1020 hPa
Visibility 10 km or more
Few clouds at a height of 4000 ft

METAR: OMDB 271700Z 28007KT 9999 FEW040 19/08 Q1020 NOSIG

Time: 21:59 (17:59 UTC)

Forecast

The report was made 56 minutes ago, at 17:03 UTC
Forecast valid from 27 at 18 UTC to 29 at 00 UTC
Wind 10 kt from the West
Visibility: 8000 m
Few clouds at a height of 4000 ft
Becoming
from 27 at 20 UTC to 27 at 22 UTC
Wind 7 kt from the South
Becoming
from 28 at 09 UTC to 28 at 11 UTC
Wind 10 kt from the Northwest
Becoming
from 28 at 16 UTC to 28 at 18 UTC
Wind 5 kt from the East/Northeast

TAF: OMDB 271703Z 2718/2900 27010KT 8000 FEW040 BECMG 2720/2722 17007KT BECMG 2809/2811 32010KT BECMG 2816/2818 06005KT

Weather observations and forecasts of more than 4000 airports (METAR and TAF reports).

The available stations are represented by yellow and red dots on the map.

Hover mouse over dot to see the name of the station.

Then click to see weather observations and forecasts.

To change the map : click on the green buttons with a black cross to zoom in, on the green button with a dash to zoom out, or on the green arrows for adjacent maps.


METAR-TAF: